createdAt,value
2023-12-18T00:00:16.132Z,18.50
2023-12-18T00:02:44.403Z,18.50
2023-12-18T00:05:12.499Z,20.00
2023-12-18T00:07:40.767Z,18.75
2023-12-18T00:10:10.928Z,17.00
2023-12-18T00:12:39.234Z,18.00
2023-12-18T00:15:09.852Z,16.50
2023-12-18T00:17:37.900Z,19.00
2023-12-18T00:20:06.907Z,16.00
2023-12-18T00:22:35.178Z,16.50
2023-12-18T00:25:03.337Z,15.25
2023-12-18T00:27:32.671Z,17.50
2023-12-18T00:30:00.820Z,16.00
2023-12-18T00:32:29.118Z,17.25
2023-12-18T00:34:57.271Z,17.25
2023-12-18T00:37:25.296Z,15.25
2023-12-18T00:39:53.245Z,15.75
2023-12-18T00:42:21.512Z,14.75
2023-12-18T00:44:50.973Z,13.25
2023-12-18T00:47:19.521Z,16.00
2023-12-18T00:49:47.716Z,15.00
2023-12-18T00:52:16.262Z,15.00
2023-12-18T00:54:44.220Z,13.00
2023-12-18T00:57:12.367Z,15.00
2023-12-18T00:59:40.361Z,14.00
2023-12-18T01:02:10.000Z,13.75
2023-12-18T01:04:38.014Z,14.50
2023-12-18T01:07:06.421Z,13.50
2023-12-18T01:09:35.025Z,11.00
2023-12-18T01:12:03.410Z,12.25
2023-12-18T01:14:31.414Z,12.75
2023-12-18T01:16:59.363Z,12.00
2023-12-18T01:19:28.827Z,11.00
2023-12-18T01:21:57.149Z,11.00
2023-12-18T01:24:25.157Z,12.75
2023-12-18T01:26:53.201Z,11.00
2023-12-18T01:29:22.943Z,11.00
2023-12-18T01:31:51.141Z,10.50
2023-12-18T01:34:19.146Z,10.25
2023-12-18T01:36:48.541Z,11.00
2023-12-18T01:39:16.469Z,9.25
2023-12-18T01:41:44.425Z,10.00
2023-12-18T01:44:12.365Z,11.75
2023-12-18T01:46:40.275Z,9.50
2023-12-18T01:49:08.608Z,9.00
2023-12-18T01:51:36.685Z,10.25
2023-12-18T01:54:06.077Z,9.00
2023-12-18T01:56:33.991Z,10.25
2023-12-18T01:59:01.953Z,10.00
2023-12-18T02:01:30.264Z,10.50
2023-12-18T02:03:58.368Z,9.50
2023-12-18T02:06:26.521Z,9.25
2023-12-18T02:08:54.545Z,8.00
2023-12-18T02:11:24.143Z,9.00
2023-12-18T02:13:52.139Z,8.00
2023-12-18T02:16:20.057Z,9.50
2023-12-18T02:18:48.579Z,9.50
2023-12-18T02:21:20.364Z,8.00
2023-12-18T02:23:49.770Z,8.75
2023-12-18T02:26:17.973Z,8.75
2023-12-18T02:28:46.066Z,9.00
2023-12-18T02:31:15.193Z,8.00
2023-12-18T02:33:50.431Z,8.00
2023-12-18T02:36:19.021Z,9.00
2023-12-18T02:38:47.045Z,7.25
2023-12-18T02:41:16.385Z,7.25
2023-12-18T02:43:44.342Z,7.50
2023-12-18T02:46:12.305Z,7.50
2023-12-18T02:48:40.417Z,9.25
2023-12-18T02:51:08.890Z,8.00
2023-12-18T02:53:37.815Z,7.00
2023-12-18T02:56:06.252Z,7.50
2023-12-18T02:58:35.737Z,8.75
2023-12-18T03:01:03.731Z,8.00
2023-12-18T03:03:32.043Z,7.50
2023-12-18T03:05:59.981Z,6.75
2023-12-18T03:08:27.917Z,7.00
2023-12-18T03:10:55.946Z,7.00
2023-12-18T03:13:24.191Z,7.75
2023-12-18T03:15:53.680Z,6.00
2023-12-18T03:18:21.763Z,7.00
2023-12-18T03:20:50.565Z,7.00
2023-12-18T03:23:18.778Z,5.75
2023-12-18T03:25:46.707Z,6.00
2023-12-18T03:28:15.037Z,7.00
2023-12-18T03:30:43.231Z,7.00
2023-12-18T03:33:13.067Z,6.50
2023-12-18T03:35:41.064Z,7.75
2023-12-18T03:38:09.233Z,6.50
2023-12-18T03:40:37.238Z,7.50
2023-12-18T03:43:06.751Z,5.75
2023-12-18T03:45:34.722Z,6.00
2023-12-18T03:48:02.850Z,6.00
2023-12-18T03:50:32.541Z,7.00
2023-12-18T03:53:00.602Z,6.50
2023-12-18T03:55:28.583Z,6.75
2023-12-18T03:57:56.844Z,6.00
2023-12-18T04:00:24.844Z,6.00
2023-12-18T04:02:53.149Z,6.50
2023-12-18T04:05:21.084Z,5.75
2023-12-18T04:07:50.395Z,6.00
2023-12-18T04:10:18.368Z,6.00
2023-12-18T04:12:46.727Z,5.00
2023-12-18T04:15:14.790Z,6.00
2023-12-18T04:17:43.039Z,6.50
2023-12-18T04:20:12.047Z,6.75
2023-12-18T04:22:40.258Z,6.00
2023-12-18T04:25:10.272Z,5.00
2023-12-18T04:27:38.299Z,6.25
2023-12-18T04:30:08.345Z,6.25
2023-12-18T04:32:37.142Z,6.00
2023-12-18T04:35:05.682Z,6.00
2023-12-18T04:37:34.159Z,6.50
2023-12-18T04:40:02.164Z,6.00
2023-12-18T04:42:31.832Z,6.50
2023-12-18T04:45:00.126Z,6.75
2023-12-18T04:47:28.274Z,6.00
2023-12-18T04:49:56.587Z,6.50
2023-12-18T04:52:25.875Z,6.00
2023-12-18T04:54:54.820Z,5.00
2023-12-18T04:57:23.012Z,7.00
2023-12-18T04:59:52.338Z,5.50
2023-12-18T05:02:20.644Z,6.00
2023-12-18T05:04:48.729Z,6.00
2023-12-18T05:07:16.808Z,5.00
2023-12-18T05:09:48.221Z,5.00
2023-12-18T05:12:17.488Z,6.00
2023-12-18T05:14:45.472Z,5.00
2023-12-18T05:17:14.792Z,5.50
2023-12-18T05:19:42.847Z,5.00
2023-12-18T05:22:11.248Z,6.00
2023-12-18T05:24:39.242Z,5.50
2023-12-18T05:27:07.261Z,8.00
2023-12-18T05:29:35.308Z,6.00
2023-12-18T05:32:03.643Z,5.75
2023-12-18T05:34:33.023Z,6.00
2023-12-18T05:37:03.281Z,5.50
2023-12-18T05:39:31.310Z,5.00
2023-12-18T05:41:59.678Z,5.75
2023-12-18T05:44:27.682Z,5.50
2023-12-18T05:46:55.647Z,5.75
2023-12-18T05:49:23.916Z,5.00
2023-12-18T05:51:53.663Z,5.75
2023-12-18T05:54:21.696Z,5.50
2023-12-18T05:56:49.767Z,6.00
2023-12-18T05:59:17.777Z,5.50
2023-12-18T06:01:46.133Z,6.75
2023-12-18T06:04:14.333Z,7.00
2023-12-18T06:06:42.439Z,8.25
2023-12-18T06:09:11.910Z,11.00
2023-12-18T06:11:40.148Z,15.00
2023-12-18T06:14:08.158Z,16.75
2023-12-18T06:16:36.119Z,21.25
2023-12-18T06:19:04.275Z,23.75
2023-12-18T06:21:32.311Z,27.25
2023-12-18T06:24:00.267Z,24.00
2023-12-18T06:26:30.190Z,32.00
2023-12-18T06:28:58.133Z,31.50
2023-12-18T06:31:26.132Z,28.50
2023-12-18T06:33:54.259Z,29.00
2023-12-18T06:36:22.318Z,30.00
2023-12-18T06:38:50.709Z,30.50
2023-12-18T06:41:18.772Z,29.50
2023-12-18T06:43:48.257Z,30.00
2023-12-18T06:46:16.200Z,33.00
2023-12-18T06:48:44.583Z,31.25
2023-12-18T06:51:12.733Z,33.00
2023-12-18T06:53:40.750Z,33.50
2023-12-18T06:56:09.629Z,34.75
2023-12-18T06:58:37.700Z,36.00
2023-12-18T07:01:07.297Z,33.75
2023-12-18T07:03:35.758Z,35.75
2023-12-18T07:06:03.909Z,34.25
2023-12-18T07:08:31.837Z,38.00
2023-12-18T07:11:00.088Z,36.50
2023-12-18T07:13:28.055Z,35.00
2023-12-18T07:15:55.997Z,38.75
2023-12-18T07:18:25.426Z,37.00
2023-12-18T07:20:53.479Z,35.50
2023-12-18T07:23:21.743Z,35.75
2023-12-18T07:25:49.671Z,36.25
2023-12-18T07:28:17.611Z,38.00
2023-12-18T07:30:45.866Z,35.25
2023-12-18T07:33:14.381Z,37.00
2023-12-18T07:35:43.917Z,36.00
2023-12-18T07:38:11.870Z,34.00
2023-12-18T07:40:39.791Z,36.00
2023-12-18T07:43:08.046Z,34.00
2023-12-18T07:45:36.009Z,33.00
2023-12-18T07:48:04.114Z,34.50
2023-12-18T07:50:32.465Z,32.00
2023-12-18T07:53:01.830Z,33.75
2023-12-18T07:55:29.801Z,32.50
2023-12-18T07:57:57.779Z,34.00
2023-12-18T08:00:25.770Z,32.00
2023-12-18T08:02:57.061Z,30.75
2023-12-18T08:05:26.513Z,32.75
2023-12-18T08:07:54.579Z,31.50
2023-12-18T08:10:23.943Z,33.00
2023-12-18T08:12:52.360Z,34.25
2023-12-18T08:15:20.674Z,32.75
2023-12-18T08:17:48.710Z,33.00
2023-12-18T08:20:17.570Z,36.75
2023-12-18T08:22:48.130Z,39.00
2023-12-18T08:25:16.081Z,38.00
2023-12-18T08:27:45.502Z,37.25
2023-12-18T08:30:14.357Z,35.75
2023-12-18T08:32:42.637Z,33.00
2023-12-18T08:35:11.262Z,32.75
2023-12-18T08:37:39.191Z,33.00
2023-12-18T08:40:08.205Z,35.00
2023-12-18T08:42:36.245Z,36.25
2023-12-18T08:45:08.312Z,36.00
2023-12-18T08:47:36.344Z,36.50
2023-12-18T08:50:04.895Z,34.75
2023-12-18T08:52:32.868Z,37.00
2023-12-18T08:55:00.864Z,34.75
2023-12-18T08:57:29.347Z,32.75
2023-12-18T08:59:57.917Z,33.50
2023-12-18T09:02:27.596Z,30.50
2023-12-18T09:04:55.560Z,33.25
2023-12-18T09:07:23.495Z,34.25
2023-12-18T09:09:51.570Z,35.75
2023-12-18T09:12:19.941Z,35.75
2023-12-18T09:14:47.931Z,36.00
2023-12-18T09:17:15.896Z,36.25
2023-12-18T09:19:45.321Z,41.75
2023-12-18T09:22:13.596Z,41.00
2023-12-18T09:24:41.642Z,39.50
2023-12-18T09:27:09.749Z,41.00
2023-12-18T09:29:37.734Z,41.00
2023-12-18T09:32:07.113Z,38.00
2023-12-18T09:34:35.283Z,41.75
2023-12-18T09:37:05.081Z,43.75
2023-12-18T09:39:33.428Z,42.00
2023-12-18T09:42:03.113Z,43.00
2023-12-18T09:44:32.344Z,43.00
2023-12-18T09:47:00.771Z,45.00
2023-12-18T09:49:28.861Z,44.00
2023-12-18T09:51:59.058Z,42.75
2023-12-18T09:54:28.445Z,42.75
2023-12-18T09:56:56.594Z,43.25
2023-12-18T09:59:24.552Z,44.75
2023-12-18T10:01:52.796Z,44.00
2023-12-18T10:04:20.822Z,43.75
2023-12-18T10:06:48.961Z,41.50
2023-12-18T10:09:17.193Z,42.50
2023-12-18T10:11:52.170Z,40.75
2023-12-18T10:14:21.777Z,42.75
2023-12-18T10:16:49.771Z,42.00
2023-12-18T10:19:17.873Z,42.50
2023-12-18T10:21:46.284Z,41.00
2023-12-18T10:24:14.347Z,41.00
2023-12-18T10:26:42.319Z,40.50
2023-12-18T10:29:11.843Z,39.50
2023-12-18T10:31:40.127Z,37.75
2023-12-18T10:34:08.223Z,38.50
2023-12-18T10:36:36.325Z,35.75
2023-12-18T10:39:05.485Z,37.50
2023-12-18T10:41:33.429Z,35.00
2023-12-18T10:44:01.427Z,36.75
2023-12-18T10:46:30.825Z,36.50
2023-12-18T10:48:58.937Z,35.75
2023-12-18T10:51:26.987Z,34.75
2023-12-18T10:53:54.996Z,34.00
2023-12-18T10:56:23.546Z,34.50
2023-12-18T10:58:52.298Z,34.00
2023-12-18T11:01:21.006Z,33.75
2023-12-18T11:03:50.544Z,32.25
2023-12-18T11:06:20.222Z,32.75
2023-12-18T11:08:49.288Z,31.75
2023-12-18T11:11:17.639Z,32.50
2023-12-18T11:13:54.884Z,32.00
2023-12-18T11:16:26.542Z,30.75
2023-12-18T11:19:08.787Z,30.25
2023-12-18T11:21:44.205Z,30.00
2023-12-18T11:24:12.382Z,28.25
2023-12-18T11:26:40.350Z,29.00
2023-12-18T11:29:35.462Z,29.00
2023-12-18T11:32:04.737Z,27.00
2023-12-18T11:34:34.680Z,26.00
2023-12-18T11:37:02.737Z,26.50
2023-12-18T11:39:37.638Z,28.00
2023-12-18T11:42:05.957Z,28.00
2023-12-18T11:44:34.573Z,27.00
2023-12-18T11:47:02.520Z,29.50
2023-12-18T11:49:31.849Z,31.00
2023-12-18T11:52:01.306Z,31.50
2023-12-18T11:54:29.325Z,28.75
2023-12-18T11:56:58.662Z,31.00
2023-12-18T11:59:27.689Z,31.75
2023-12-18T12:01:55.952Z,30.00
2023-12-18T12:04:24.152Z,26.75
2023-12-18T12:06:52.093Z,29.25
2023-12-18T12:09:21.485Z,28.00
2023-12-18T12:11:49.504Z,29.50
2023-12-18T12:14:17.440Z,28.75
2023-12-18T12:16:45.415Z,28.50
2023-12-18T12:19:13.517Z,26.75
2023-12-18T12:21:45.781Z,27.00
2023-12-18T12:24:17.325Z,28.25
2023-12-18T12:26:49.772Z,28.00
2023-12-18T12:29:17.800Z,24.50
2023-12-18T12:31:53.525Z,27.50
2023-12-18T12:34:27.225Z,26.00
2023-12-18T12:36:55.308Z,25.25
2023-12-18T12:39:25.252Z,22.50
2023-12-18T12:41:55.321Z,25.25
2023-12-18T12:44:23.280Z,21.75
2023-12-18T12:46:51.324Z,22.25
2023-12-18T12:49:20.981Z,22.25
2023-12-18T12:51:49.501Z,22.25
2023-12-18T12:54:19.040Z,21.75
2023-12-18T12:56:47.460Z,22.50
2023-12-18T12:59:16.813Z,20.00
2023-12-18T13:01:45.288Z,21.00
2023-12-18T13:04:13.356Z,20.25
2023-12-18T13:06:41.398Z,21.00
2023-12-18T13:09:10.730Z,16.50
2023-12-18T13:11:41.041Z,16.00
2023-12-18T13:14:14.656Z,21.00
2023-12-18T13:16:44.951Z,18.25
2023-12-18T13:19:14.021Z,18.00
2023-12-18T13:21:42.639Z,16.50
2023-12-18T13:24:10.677Z,17.00
2023-12-18T13:26:38.621Z,17.75
2023-12-18T13:29:06.573Z,17.00
2023-12-18T13:31:35.317Z,17.25
2023-12-18T13:34:05.893Z,14.75
2023-12-18T13:36:34.107Z,15.50
2023-12-18T13:39:02.114Z,17.00
2023-12-18T13:41:32.239Z,15.00
2023-12-18T13:44:00.422Z,17.75
2023-12-18T13:46:28.388Z,15.00
2023-12-18T13:48:56.458Z,16.00
2023-12-18T13:51:25.877Z,15.25
2023-12-18T13:53:53.868Z,13.50
2023-12-18T13:56:22.370Z,15.50
2023-12-18T13:58:50.309Z,12.00
2023-12-18T14:01:18.697Z,13.25
2023-12-18T14:03:46.774Z,11.00
2023-12-18T14:06:14.787Z,13.00
2023-12-18T14:08:44.142Z,11.50
2023-12-18T14:11:12.090Z,14.75
2023-12-18T14:13:40.096Z,12.00
2023-12-18T14:16:08.406Z,13.00
2023-12-18T14:18:36.587Z,11.00
2023-12-18T14:21:05.048Z,11.25
2023-12-18T14:23:33.298Z,11.25
2023-12-18T14:26:02.652Z,12.75
2023-12-18T14:28:32.013Z,11.00
2023-12-18T14:31:00.153Z,11.00
2023-12-18T14:33:28.278Z,10.25
2023-12-18T14:35:57.884Z,11.00
2023-12-18T14:38:26.047Z,9.00
2023-12-18T14:40:53.976Z,11.00
2023-12-18T14:43:23.316Z,8.75
2023-12-18T14:45:51.324Z,10.50
2023-12-18T14:48:23.169Z,9.00
2023-12-18T14:50:58.973Z,9.00
2023-12-18T14:53:28.110Z,10.00
2023-12-18T14:55:56.078Z,8.75
2023-12-18T14:58:29.965Z,9.00
2023-12-18T15:00:58.070Z,9.50
2023-12-18T15:03:27.444Z,8.00
2023-12-18T15:05:56.238Z,9.00
2023-12-18T15:08:29.498Z,7.50
2023-12-18T15:11:00.745Z,9.25
2023-12-18T15:13:35.686Z,8.00
2023-12-18T15:16:03.707Z,8.75
2023-12-18T15:18:32.133Z,7.25
2023-12-18T15:21:00.494Z,8.00
2023-12-18T15:23:28.439Z,11.25
2023-12-18T15:25:58.162Z,13.25
2023-12-18T15:28:29.681Z,15.00
2023-12-18T15:31:05.991Z,18.25
2023-12-18T15:33:35.667Z,17.00
2023-12-18T15:36:12.936Z,19.50
2023-12-18T15:38:47.196Z,16.75
2023-12-18T15:41:15.284Z,21.00
2023-12-18T15:43:47.044Z,21.50
2023-12-18T15:46:16.370Z,21.50
2023-12-18T15:48:44.522Z,19.50
2023-12-18T15:51:13.161Z,19.25
2023-12-18T15:53:45.277Z,20.25
2023-12-18T15:56:18.546Z,17.00
2023-12-18T15:58:49.382Z,18.00
2023-12-18T16:01:20.024Z,18.75
2023-12-18T16:03:49.178Z,17.00
2023-12-18T16:06:18.630Z,17.50
2023-12-18T16:08:46.617Z,18.00
2023-12-18T16:11:17.280Z,16.00
2023-12-18T16:13:46.859Z,17.00
2023-12-18T16:16:14.864Z,17.50
2023-12-18T16:18:45.471Z,15.50
2023-12-18T16:21:15.884Z,16.00
2023-12-18T16:23:44.563Z,15.00
2023-12-18T16:26:21.898Z,16.75
2023-12-18T16:28:53.321Z,14.00
2023-12-18T16:31:27.306Z,13.50
2023-12-18T16:33:58.164Z,14.25
2023-12-18T16:36:28.620Z,12.25
2023-12-18T16:38:59.707Z,13.00
2023-12-18T16:41:31.677Z,12.25
2023-12-18T16:43:59.665Z,13.00
2023-12-18T16:46:37.249Z,12.50
2023-12-18T16:49:13.360Z,13.00
2023-12-18T16:51:42.094Z,13.25
2023-12-18T16:54:10.205Z,11.75
2023-12-18T16:56:38.568Z,11.50
2023-12-18T16:59:06.565Z,11.00
2023-12-18T17:01:35.034Z,11.00
2023-12-18T17:04:03.260Z,11.25
2023-12-18T17:06:33.162Z,12.50
2023-12-18T17:09:01.772Z,11.75
2023-12-18T17:11:29.760Z,11.00
2023-12-18T17:13:57.703Z,10.00
2023-12-18T17:16:25.672Z,11.00
2023-12-18T17:18:53.755Z,11.00
2023-12-18T17:21:21.811Z,10.00
2023-12-18T17:23:51.175Z,9.25
2023-12-18T17:26:19.470Z,9.00
2023-12-18T17:28:47.433Z,11.00
2023-12-18T17:31:15.538Z,10.00
2023-12-18T17:33:43.948Z,10.00
2023-12-18T17:36:12.268Z,9.50
2023-12-18T17:38:40.234Z,9.50
2023-12-18T17:41:09.791Z,9.50
2023-12-18T17:43:37.796Z,9.25
2023-12-18T17:46:06.159Z,10.75
2023-12-18T17:48:34.240Z,9.75
2023-12-18T17:51:03.940Z,9.50
2023-12-18T17:53:31.967Z,9.00
2023-12-18T17:56:00.259Z,9.00
2023-12-18T17:58:29.585Z,9.50
2023-12-18T18:00:57.676Z,8.00
2023-12-18T18:03:25.819Z,9.25
2023-12-18T18:05:54.245Z,8.75
2023-12-18T18:08:22.283Z,8.00
2023-12-18T18:10:50.259Z,8.00
2023-12-18T18:13:18.196Z,8.50
2023-12-18T18:15:47.988Z,8.50
2023-12-18T18:18:16.128Z,7.75
2023-12-18T18:20:44.372Z,9.25
2023-12-18T18:23:12.373Z,9.00
2023-12-18T18:25:42.504Z,7.75
2023-12-18T18:28:10.730Z,7.50
2023-12-18T18:30:38.848Z,8.75
2023-12-18T18:33:11.346Z,8.50
2023-12-18T18:35:40.476Z,7.00
2023-12-18T18:38:08.391Z,8.00
2023-12-18T18:40:36.385Z,8.00
2023-12-18T18:43:04.633Z,7.50
2023-12-18T18:45:35.061Z,7.00
2023-12-18T18:48:03.281Z,8.00
2023-12-18T18:50:32.695Z,6.75
2023-12-18T18:53:00.781Z,7.00
2023-12-18T18:55:29.228Z,8.75
2023-12-18T18:57:57.569Z,7.50
2023-12-18T19:00:25.708Z,8.00
2023-12-18T19:02:57.772Z,7.00
2023-12-18T19:05:25.882Z,8.00
2023-12-18T19:07:55.238Z,7.75
2023-12-18T19:10:23.199Z,8.00
2023-12-18T19:12:51.694Z,8.25
2023-12-18T19:15:20.248Z,7.00
2023-12-18T19:17:48.351Z,7.25
2023-12-18T19:20:16.414Z,7.00
2023-12-18T19:22:45.316Z,8.25
2023-12-18T19:25:14.708Z,6.75
2023-12-18T19:27:42.920Z,7.75
2023-12-18T19:30:12.574Z,7.00
2023-12-18T19:32:41.833Z,8.00
2023-12-18T19:35:11.681Z,7.50
2023-12-18T19:37:42.293Z,7.00
2023-12-18T19:40:11.836Z,6.75
2023-12-18T19:42:41.190Z,7.00
2023-12-18T19:45:12.236Z,7.75
2023-12-18T19:47:40.907Z,7.25
2023-12-18T19:50:10.035Z,8.00
2023-12-18T19:52:38.178Z,9.00
2023-12-18T19:55:06.910Z,8.50
2023-12-18T19:57:37.165Z,12.50
2023-12-18T20:00:13.520Z,13.00
2023-12-18T20:02:41.723Z,14.50
2023-12-18T20:05:10.195Z,19.75
2023-12-18T20:07:38.786Z,16.75
2023-12-18T20:10:07.738Z,15.25
2023-12-18T20:12:35.909Z,16.25
2023-12-18T20:15:04.002Z,15.00
2023-12-18T20:17:35.174Z,17.00
2023-12-18T20:20:03.458Z,15.00
2023-12-18T20:22:31.531Z,18.25
2023-12-18T20:24:59.544Z,16.25
2023-12-18T20:27:28.904Z,16.25
2023-12-18T20:29:57.190Z,15.75
2023-12-18T20:32:25.191Z,16.50
2023-12-18T20:34:54.595Z,16.00
2023-12-18T20:37:22.953Z,16.00
2023-12-18T20:39:50.971Z,15.00
2023-12-18T20:42:19.059Z,15.00
2023-12-18T20:44:47.044Z,15.50
2023-12-18T20:47:15.350Z,15.75
2023-12-18T20:49:43.558Z,15.50
2023-12-18T20:52:13.113Z,16.00
2023-12-18T20:54:41.124Z,15.50
2023-12-18T20:57:09.337Z,15.00
2023-12-18T20:59:42.449Z,14.75
2023-12-18T21:02:11.366Z,14.00
2023-12-18T21:04:39.298Z,14.25
2023-12-18T21:07:09.022Z,16.25
2023-12-18T21:09:38.401Z,13.75
2023-12-18T21:12:07.105Z,15.00
2023-12-18T21:14:35.950Z,15.00
2023-12-18T21:17:04.899Z,14.00
2023-12-18T21:19:32.846Z,13.25
2023-12-18T21:22:03.874Z,13.00
2023-12-18T21:24:33.060Z,13.00
2023-12-18T21:27:02.783Z,14.00
2023-12-18T21:29:30.765Z,13.00
2023-12-18T21:31:59.478Z,12.75
2023-12-18T21:34:28.362Z,12.75
2023-12-18T21:36:56.808Z,14.25
2023-12-18T21:39:24.876Z,12.50
2023-12-18T21:41:52.857Z,14.25
2023-12-18T21:44:22.185Z,11.00
2023-12-18T21:46:50.383Z,13.00
2023-12-18T21:49:18.551Z,13.50
2023-12-18T21:51:46.714Z,11.00
2023-12-18T21:54:14.859Z,12.50
2023-12-18T21:56:43.084Z,11.50
2023-12-18T21:59:11.058Z,11.00
2023-12-18T22:01:40.613Z,10.75
2023-12-18T22:04:09.021Z,10.50
2023-12-18T22:06:37.793Z,11.50
2023-12-18T22:09:06.106Z,13.00
2023-12-18T22:11:34.203Z,11.25
2023-12-18T22:14:02.221Z,11.75
2023-12-18T22:16:30.466Z,10.25
2023-12-18T22:19:00.054Z,11.50
2023-12-18T22:21:28.066Z,11.00
2023-12-18T22:23:56.017Z,11.75
2023-12-18T22:26:24.333Z,12.00
2023-12-18T22:28:52.505Z,11.50
2023-12-18T22:31:20.504Z,10.00
2023-12-18T22:33:48.623Z,11.00
2023-12-18T22:36:18.305Z,9.75
2023-12-18T22:38:52.383Z,10.50
2023-12-18T22:41:23.699Z,11.25
2023-12-18T22:43:51.658Z,10.00
2023-12-18T22:46:20.028Z,10.00
2023-12-18T22:48:48.039Z,10.25
2023-12-18T22:51:16.093Z,11.75
2023-12-18T22:53:45.424Z,9.50
2023-12-18T22:56:13.760Z,10.25
2023-12-18T22:58:41.852Z,9.25
2023-12-18T23:01:09.862Z,11.25
2023-12-18T23:03:37.946Z,10.50
2023-12-18T23:06:06.746Z,11.00
2023-12-18T23:08:34.776Z,11.00
2023-12-18T23:11:04.174Z,11.25
2023-12-18T23:13:32.172Z,10.75
2023-12-18T23:16:00.471Z,14.25
2023-12-18T23:18:28.558Z,15.00
2023-12-18T23:20:57.094Z,15.00
2023-12-18T23:23:25.077Z,15.25
2023-12-18T23:25:53.527Z,16.25
2023-12-18T23:28:22.949Z,19.00
2023-12-18T23:30:51.942Z,19.25
2023-12-18T23:33:25.966Z,15.50
2023-12-18T23:35:59.997Z,16.25
2023-12-18T23:38:28.293Z,16.50
2023-12-18T23:40:56.237Z,16.75
2023-12-18T23:43:25.720Z,19.25
2023-12-18T23:45:54.406Z,18.75
2023-12-18T23:48:22.549Z,17.75
2023-12-18T23:50:50.678Z,17.75
2023-12-18T23:53:21.031Z,16.25
2023-12-18T23:55:49.282Z,18.75
2023-12-18T23:58:17.868Z,17.50
